Time,TemperatureF,DewpointF,PressureIn,WindDirection,WindDirectionDegrees,WindSpeedMPH,WindSpeedGustMPH,Humidity,HourlyPrecipIn,Conditions,Clouds,dailyrainin,SoftwareType,DateUTC
2013-04-11 00:03:00,-999.0,-99.9,29.88,SW,215,0.0,1.0,-999,-99.99,,,-99.99,,2013-04-11 04:03:00,
2013-04-11 00:13:00,-999.0,-99.9,29.88,North,359,2.0,5.0,-999,-99.99,,,-99.99,,2013-04-11 04:13:00,
2013-04-11 00:23:00,-999.0,-99.9,29.88,NW,324,6.0,7.0,-999,-99.99,,,-99.99,,2013-04-11 04:23:00,
2013-04-11 00:33:00,-999.0,-99.9,29.88,North,352,5.0,6.0,-999,-99.99,,,-99.99,,2013-04-11 04:33:00,
2013-04-11 00:43:00,-999.0,-99.9,29.89,NNW,342,6.0,7.0,-999,-99.99,,,-99.99,,2013-04-11 04:43:00,
2013-04-11 00:53:00,-999.0,-99.9,29.89,North,5,7.0,10.0,-999,-99.99,,,-99.99,,2013-04-11 04:53:00,
2013-04-11 01:03:00,-999.0,-99.9,29.89,NNW,342,7.0,9.0,-999,-99.99,,,-99.99,,2013-04-11 05:03:00,
2013-04-11 01:13:00,-999.0,-99.9,29.90,NW,313,6.0,8.0,-999,-99.99,,,-99.99,,2013-04-11 05:13:00,
2013-04-11 01:23:00,19.0,-99.9,29.90,NW,319,6.0,8.0,-999,-99.99,,,-99.99,,2013-04-11 05:23:00,
2013-04-11 01:32:00,-999.0,-99.9,29.90,NW,322,7.0,9.0,-999,-99.99,,,-99.99,,2013-04-11 05:32:00,
2013-04-11 01:42:00,18.0,-99.9,29.91,WNW,300,6.0,11.0,-999,-99.99,,,-99.99,,2013-04-11 05:42:00,
2013-04-11 01:52:00,-999.0,-99.9,29.91,NNW,340,4.0,8.0,-999,-99.99,,,-99.99,,2013-04-11 05:52:00,
2013-04-11 02:02:00,-999.0,-99.9,29.91,NW,321,3.0,8.0,-999,-99.99,,,-99.99,,2013-04-11 06:02:00,
2013-04-11 02:12:00,-999.0,-99.9,29.91,NW,319,5.0,8.0,-999,-99.99,,,-99.99,,2013-04-11 06:12:00,
2013-04-11 02:22:00,18.0,-99.9,29.91,NNW,344,2.0,6.0,-999,-99.99,,,-99.99,,2013-04-11 06:22:00,
2013-04-11 02:32:00,-999.0,-99.9,29.92,North,355,3.0,7.0,-999,-99.99,,,-99.99,,2013-04-11 06:32:00,
2013-04-11 02:42:00,18.0,-99.9,29.92,NW,322,6.0,7.0,-999,-99.99,,,-99.99,,2013-04-11 06:42:00,
2013-04-11 02:53:00,-999.0,-99.9,29.93,ENE,65,2.0,5.0,-999,-99.99,,,-99.99,,2013-04-11 06:53:00,
2013-04-11 03:02:00,-999.0,-99.9,29.93,NNE,32,2.0,3.0,-999,-99.99,,,-99.99,,2013-04-11 07:02:00,
2013-04-11 03:12:00,-999.0,-99.9,29.93,NNW,339,0.0,3.0,-999,-99.99,,,-99.99,,2013-04-11 07:12:00,
2013-04-11 03:22:00,15.0,-99.9,29.93,ESE,122,3.0,5.0,-999,-99.99,,,-99.99,,2013-04-11 07:22:00,
2013-04-11 03:32:00,-999.0,-99.9,29.94,SE,136,4.0,4.0,-999,-99.99,,,-99.99,,2013-04-11 07:32:00,
2013-04-11 03:43:00,-999.0,-99.9,29.94,ESE,120,4.0,6.0,-999,-99.99,,,-99.99,,2013-04-11 07:43:00,
2013-04-11 03:52:00,15.0,-99.9,29.94,ESE,119,4.0,5.0,-999,-99.99,,,-99.99,,2013-04-11 07:52:00,
2013-04-11 04:03:00,-999.0,-99.9,29.94,ESE,114,4.0,4.0,-999,-99.99,,,-99.99,,2013-04-11 08:03:00,
2013-04-11 04:12:00,-999.0,-99.9,29.95,ESE,116,5.0,6.0,-999,-99.99,,,-99.99,,2013-04-11 08:12:00,
2013-04-11 04:22:00,-999.0,-99.9,29.95,SE,128,7.0,8.0,-999,-99.99,,,-99.99,,2013-04-11 08:22:00,
2013-04-11 04:33:00,-999.0,-99.9,29.95,ESE,123,3.0,5.0,-999,-99.99,,,-99.99,,2013-04-11 08:33:00,
2013-04-11 04:43:00,-999.0,-99.9,29.96,South,184,2.0,3.0,-999,-99.99,,,-99.99,,2013-04-11 08:43:00,
2013-04-11 04:52:00,15.0,-99.9,29.96,East,90,2.0,4.0,-999,-99.99,,,-99.99,,2013-04-11 08:52:00,
2013-04-11 05:02:00,-999.0,-99.9,29.96,ENE,60,4.0,6.0,-999,-99.99,,,-99.99,,2013-04-11 09:02:00,
2013-04-11 05:12:00,15.0,-99.9,29.96,NE,56,4.0,5.0,-999,-99.99,,,-99.99,,2013-04-11 09:12:00,
2013-04-11 05:22:00,-999.0,-99.9,29.96,ENE,67,5.0,6.0,-999,-99.99,,,-99.99,,2013-04-11 09:22:00,
2013-04-11 05:33:00,-999.0,-99.9,29.97,NE,34,6.0,7.0,-999,-99.99,,,-99.99,,2013-04-11 09:33:00,
2013-04-11 05:43:00,-999.0,-99.9,29.97,NE,34,6.0,7.0,-999,-99.99,,,-99.99,,2013-04-11 09:43:00,
2013-04-11 05:53:00,-999.0,-99.9,29.97,NNE,22,5.0,6.0,-999,-99.99,,,-99.99,,2013-04-11 09:53:00,
2013-04-11 06:03:00,-999.0,-99.9,29.98,NNE,22,10.0,14.0,-999,-99.99,,,-99.99,,2013-04-11 10:03:00,
2013-04-11 06:13:00,17.0,-99.9,29.98,NNE,18,11.0,14.0,-999,-99.99,,,-99.99,,2013-04-11 10:13:00,
2013-04-11 06:23:00,-999.0,-99.9,29.98,NNE,23,9.0,16.0,-999,-99.99,,,-99.99,,2013-04-11 10:23:00,
2013-04-11 06:32:00,-999.0,-99.9,29.98,NNE,27,8.0,12.0,-999,-99.99,,,-99.99,,2013-04-11 10:32:00,
2013-04-11 06:42:00,-999.0,-99.9,29.98,NNE,27,8.0,12.0,-999,-99.99,,,-99.99,,2013-04-11 10:42:00,
2013-04-11 06:53:00,-999.0,-99.9,29.98,NNE,27,8.0,12.0,-999,-99.99,,,-99.99,,2013-04-11 10:53:00,
2013-04-11 07:03:00,-999.0,-99.9,29.99,NE,55,6.0,11.0,-999,-99.99,,,-99.99,,2013-04-11 11:03:00,
2013-04-11 07:13:00,-999.0,-99.9,29.99,NNE,30,5.0,7.0,-999,-99.99,,,-99.99,,2013-04-11 11:13:00,
2013-04-11 07:23:00,12.0,-99.9,29.99,NE,40,5.0,6.0,-999,-99.99,,,-99.99,,2013-04-11 11:23:00,
2013-04-11 07:32:00,-999.0,-99.9,30.00,ENE,61,4.0,5.0,-999,-99.99,,,-99.99,,2013-04-11 11:32:00,
2013-04-11 07:43:00,9.0,-99.9,30.00,East,88,4.0,4.0,-999,-99.99,,,-99.99,,2013-04-11 11:43:00,
2013-04-11 07:53:00,-999.0,-99.9,30.00,ENE,64,4.0,5.0,-999,-99.99,,,-99.99,,2013-04-11 11:53:00,
2013-04-11 08:02:00,-999.0,-99.9,30.00,NE,50,4.0,6.0,-999,-99.99,,,-99.99,,2013-04-11 12:02:00,
2013-04-11 08:13:00,-999.0,-99.9,30.00,ENE,58,4.0,6.0,-999,-99.99,,,-99.99,,2013-04-11 12:13:00,
2013-04-11 08:23:00,11.0,-99.9,30.00,NE,45,5.0,5.0,-999,-99.99,,,-99.99,,2013-04-11 12:23:00,
2013-04-11 08:32:00,-999.0,-99.9,30.01,NE,52,6.0,8.0,-999,-99.99,,,-99.99,,2013-04-11 12:32:00,
2013-04-11 08:43:00,13.0,-99.9,30.01,NE,41,6.0,9.0,-999,-99.99,,,-99.99,,2013-04-11 12:43:00,
2013-04-11 08:53:00,-999.0,-99.9,30.01,ENE,57,6.0,9.0,-999,-99.99,,,-99.99,,2013-04-11 12:53:00,
2013-04-11 09:02:00,-999.0,-99.9,30.01,ENE,71,5.0,6.0,-999,-99.99,,,-99.99,,2013-04-11 13:02:00,
2013-04-11 09:13:00,-999.0,-99.9,30.01,ENE,78,5.0,5.0,-999,-99.99,,,-99.99,,2013-04-11 13:13:00,
2013-04-11 09:23:00,12.0,-99.9,30.01,ENE,72,4.0,4.0,-999,-99.99,,,-99.99,,2013-04-11 13:23:00,
2013-04-11 09:32:00,-999.0,-99.9,30.01,East,80,6.0,6.0,-999,-99.99,,,-99.99,,2013-04-11 13:32:00,
2013-04-11 09:43:00,12.0,-99.9,30.01,ENE,75,6.0,7.0,-999,-99.99,,,-99.99,,2013-04-11 13:43:00,
2013-04-11 09:54:00,-999.0,-99.9,30.02,ENE,70,5.0,7.0,-999,-99.99,,,-99.99,,2013-04-11 13:54:00,
2013-04-11 10:03:00,-999.0,-99.9,30.02,NE,43,6.0,9.0,-999,-99.99,,,-99.99,,2013-04-11 14:03:00,
2013-04-11 10:13:00,-999.0,-99.9,30.02,NNE,31,5.0,7.0,-999,-99.99,,,-99.99,,2013-04-11 14:13:00,
2013-04-11 10:22:00,-999.0,-99.9,30.02,NNE,31,6.0,9.0,-999,-99.99,,,-99.99,,2013-04-11 14:22:00,
2013-04-11 10:33:00,-999.0,-99.9,30.02,NNE,19,8.0,10.0,-999,-99.99,,,-99.99,,2013-04-11 14:33:00,
2013-04-11 10:43:00,-999.0,-99.9,30.02,NE,37,7.0,9.0,-999,-99.99,,,-99.99,,2013-04-11 14:43:00,
2013-04-11 10:53:00,13.0,-99.9,30.02,East,86,7.0,8.0,-999,-99.99,,,-99.99,,2013-04-11 14:53:00,
2013-04-11 11:03:00,-999.0,-99.9,30.02,ENE,59,2.0,5.0,-999,-99.99,,,-99.99,,2013-04-11 15:03:00,
2013-04-11 11:12:00,14.0,-99.9,30.02,ENE,60,3.0,4.0,-999,-99.99,,,-99.99,,2013-04-11 15:12:00,
2013-04-11 11:22:00,-999.0,-99.9,30.03,East,83,5.0,6.0,-999,-99.99,,,-99.99,,2013-04-11 15:22:00,
2013-04-11 11:32:00,-999.0,-99.9,30.03,ENE,63,4.0,5.0,-999,-99.99,,,-99.99,,2013-04-11 15:32:00,
2013-04-11 11:43:00,-999.0,-99.9,30.03,NE,54,3.0,5.0,-999,-99.99,,,-99.99,,2013-04-11 15:43:00,
2013-04-11 11:53:00,13.0,-99.9,30.03,NE,54,4.0,5.0,-999,-99.99,,,-99.99,,2013-04-11 15:53:00,
2013-04-11 12:02:00,-999.0,-99.9,30.03,NNE,26,9.0,11.0,-999,-99.99,,,-99.99,,2013-04-11 16:02:00,
2013-04-11 12:13:00,17.0,-99.9,30.03,NNE,22,8.0,13.0,-999,-99.99,,,-99.99,,2013-04-11 16:13:00,
2013-04-11 12:23:00,-999.0,-99.9,30.03,NNE,31,8.0,10.0,-999,-99.99,,,-99.99,,2013-04-11 16:23:00,
2013-04-11 12:32:00,-999.0,-99.9,30.03,NNE,33,10.0,13.0,-999,-99.99,,,-99.99,,2013-04-11 16:32:00,
2013-04-11 12:42:00,-999.0,-99.9,30.04,ENE,77,6.0,11.0,-999,-99.99,,,-99.99,,2013-04-11 16:42:00,
2013-04-11 12:53:00,-999.0,-99.9,30.04,ENE,64,6.0,9.0,-999,-99.99,,,-99.99,,2013-04-11 16:53:00,
2013-04-11 13:03:00,-999.0,-99.9,30.04,NE,38,13.0,18.0,-999,-99.99,,,-99.99,,2013-04-11 17:03:00,
2013-04-11 13:13:00,-999.0,-99.9,30.04,NE,36,15.0,20.0,-999,-99.99,,,-99.99,,2013-04-11 17:13:00,
2013-04-11 13:23:00,16.0,-99.9,30.04,NNE,31,12.0,18.0,-999,-99.99,,,-99.99,,2013-04-11 17:23:00,
2013-04-11 13:33:00,-999.0,-99.9,30.04,NE,37,13.0,18.0,-999,-99.99,,,-99.99,,2013-04-11 17:33:00,
2013-04-11 13:43:00,16.0,-99.9,30.04,NE,38,12.0,20.0,-999,-99.99,,,-99.99,,2013-04-11 17:43:00,
2013-04-11 13:53:00,-999.0,-99.9,30.05,NE,34,10.0,18.0,-999,-99.99,,,-99.99,,2013-04-11 17:53:00,
2013-04-11 14:03:00,-999.0,-99.9,30.05,NE,44,11.0,15.0,-999,-99.99,,,-99.99,,2013-04-11 18:03:00,
2013-04-11 14:13:00,-999.0,-99.9,30.05,NNE,30,16.0,21.0,-999,-99.99,,,-99.99,,2013-04-11 18:13:00,
2013-04-11 14:23:00,17.0,-99.9,30.05,NE,43,11.0,20.0,-999,-99.99,,,-99.99,,2013-04-11 18:23:00,
2013-04-11 14:33:00,-999.0,-99.9,30.05,NE,55,13.0,21.0,-999,-99.99,,,-99.99,,2013-04-11 18:33:00,
2013-04-11 14:43:00,16.0,-99.9,30.06,NNE,33,11.0,18.0,-999,-99.99,,,-99.99,,2013-04-11 18:43:00,
2013-04-11 14:53:00,-999.0,-99.9,30.06,NE,52,13.0,18.0,-999,-99.99,,,-99.99,,2013-04-11 18:53:00,
2013-04-11 15:04:00,-999.0,-99.9,30.06,NE,39,16.0,21.0,-999,-99.99,,,-99.99,,2013-04-11 19:04:00,
2013-04-11 15:14:00,-999.0,-99.9,30.06,NNE,19,14.0,20.0,-999,-99.99,,,-99.99,,2013-04-11 19:14:00,
2013-04-11 15:23:00,-999.0,-99.9,30.06,NNE,32,14.0,17.0,-999,-99.99,,,-99.99,,2013-04-11 19:23:00,
2013-04-11 15:33:00,-999.0,-99.9,30.06,NE,52,10.0,17.0,-999,-99.99,,,-99.99,,2013-04-11 19:33:00,
2013-04-11 15:43:00,-999.0,-99.9,30.07,NE,39,17.0,20.0,-999,-99.99,,,-99.99,,2013-04-11 19:43:00,
2013-04-11 15:53:00,17.0,-99.9,30.07,NE,46,10.0,20.0,-999,-99.99,,,-99.99,,2013-04-11 19:53:00,
2013-04-11 16:03:00,-999.0,-99.9,30.07,NE,52,11.0,18.0,-999,-99.99,,,-99.99,,2013-04-11 20:03:00,
2013-04-11 16:13:00,17.0,-99.9,30.08,NNE,32,11.0,16.0,-999,-99.99,,,-99.99,,2013-04-11 20:13:00,
2013-04-11 16:22:00,-999.0,-99.9,30.07,NE,54,13.0,18.0,-999,-99.99,,,-99.99,,2013-04-11 20:22:00,
2013-04-11 16:34:00,-999.0,-99.9,30.08,NE,43,15.0,20.0,-999,-99.99,,,-99.99,,2013-04-11 20:34:00,
2013-04-11 16:43:00,-999.0,-99.9,30.08,NNE,33,15.0,20.0,-999,-99.99,,,-99.99,,2013-04-11 20:43:00,
2013-04-11 16:53:00,17.0,-99.9,30.08,NNE,30,12.0,19.0,-999,-99.99,,,-99.99,,2013-04-11 20:53:00,
2013-04-11 17:03:00,-999.0,-99.9,30.08,NE,36,14.0,18.0,-999,-99.99,,,-99.99,,2013-04-11 21:03:00,
2013-04-11 17:13:00,-999.0,-99.9,30.08,NE,36,14.0,18.0,-999,-99.99,,,-99.99,,2013-04-11 21:13:00,
2013-04-11 17:23:00,-999.0,-99.9,30.08,NNE,31,14.0,20.0,-999,-99.99,,,-99.99,,2013-04-11 21:23:00,
2013-04-11 17:33:00,-999.0,-99.9,30.08,NE,35,15.0,20.0,-999,-99.99,,,-99.99,,2013-04-11 21:33:00,
2013-04-11 17:43:00,-999.0,-99.9,30.08,NE,49,15.0,21.0,-999,-99.99,,,-99.99,,2013-04-11 21:43:00,
2013-04-11 17:54:00,18.0,-99.9,30.09,NE,43,13.0,19.0,-999,-99.99,,,-99.99,,2013-04-11 21:54:00,
2013-04-11 18:03:00,-999.0,-99.9,30.09,NNE,26,17.0,23.0,-999,-99.99,,,-99.99,,2013-04-11 22:03:00,
2013-04-11 18:13:00,-999.0,-99.9,30.09,ENE,57,13.0,19.0,-999,-99.99,,,-99.99,,2013-04-11 22:13:00,
2013-04-11 18:23:00,19.0,-99.9,30.09,NNE,30,14.0,19.0,-999,-99.99,,,-99.99,,2013-04-11 22:23:00,
2013-04-11 18:33:00,-999.0,-99.9,30.09,NNE,26,15.0,19.0,-999,-99.99,,,-99.99,,2013-04-11 22:33:00,
2013-04-11 18:44:00,19.0,-99.9,30.08,NNE,32,15.0,21.0,-999,-99.99,,,-99.99,,2013-04-11 22:44:00,
2013-04-11 18:53:00,-999.0,-99.9,30.08,NE,37,13.0,20.0,-999,-99.99,,,-99.99,,2013-04-11 22:53:00,
2013-04-11 19:04:00,-999.0,-99.9,30.09,ENE,57,15.0,20.0,-999,-99.99,,,-99.99,,2013-04-11 23:04:00,
2013-04-11 19:13:00,-999.0,-99.9,30.09,NE,40,11.0,19.0,-999,-99.99,,,-99.99,,2013-04-11 23:13:00,
2013-04-11 19:23:00,19.0,-99.9,30.09,ENE,64,12.0,18.0,-999,-99.99,,,-99.99,,2013-04-11 23:23:00,
2013-04-11 19:33:00,-999.0,-99.9,30.09,NNE,27,13.0,19.0,-999,-99.99,,,-99.99,,2013-04-11 23:33:00,
2013-04-11 19:43:00,19.0,-99.9,30.09,NNE,27,16.0,19.0,-999,-99.99,,,-99.99,,2013-04-11 23:43:00,
2013-04-11 19:54:00,-999.0,-99.9,30.09,NNE,30,13.0,17.0,-999,-99.99,,,-99.99,,2013-04-11 23:54:00,
2013-04-11 20:02:00,-999.0,-99.9,30.09,NE,34,15.0,18.0,-999,-99.99,,,-99.99,,2013-04-12 00:02:00,
2013-04-11 20:12:00,-999.0,-99.9,30.09,NE,45,9.0,17.0,-999,-99.99,,,-99.99,,2013-04-12 00:12:00,
2013-04-11 20:22:00,20.0,-99.9,30.09,ENE,63,13.0,18.0,-999,-99.99,,,-99.99,,2013-04-12 00:22:00,
2013-04-11 20:33:00,-999.0,-99.9,30.09,ENE,57,9.0,18.0,-999,-99.99,,,-99.99,,2013-04-12 00:33:00,
2013-04-11 20:43:00,21.0,-99.9,30.09,NE,38,12.0,15.0,-999,-99.99,,,-99.99,,2013-04-12 00:43:00,
2013-04-11 20:53:00,-999.0,-99.9,30.09,NNE,33,12.0,17.0,-999,-99.99,,,-99.99,,2013-04-12 00:53:00,
2013-04-11 21:03:00,-999.0,-99.9,30.09,NNE,30,10.0,13.0,-999,-99.99,,,-99.99,,2013-04-12 01:03:00,
2013-04-11 21:12:00,-999.0,-99.9,30.09,NNE,27,10.0,13.0,-999,-99.99,,,-99.99,,2013-04-12 01:12:00,
2013-04-11 21:23:00,-999.0,-99.9,30.09,NNE,17,10.0,15.0,-999,-99.99,,,-99.99,,2013-04-12 01:23:00,
2013-04-11 21:33:00,-999.0,-99.9,30.09,NNE,31,8.0,14.0,-999,-99.99,,,-99.99,,2013-04-12 01:33:00,
2013-04-11 21:42:00,-999.0,-99.9,30.09,NNE,29,7.0,14.0,-999,-99.99,,,-99.99,,2013-04-12 01:42:00,
2013-04-11 21:53:00,21.0,-99.9,30.09,North,359,8.0,16.0,-999,-99.99,,,-99.99,,2013-04-12 01:53:00,
2013-04-11 22:03:00,-999.0,-99.9,30.09,NE,42,9.0,23.0,-999,-99.99,,,-99.99,,2013-04-12 02:03:00,
2013-04-11 22:12:00,22.0,-99.9,30.09,NNE,30,7.0,12.0,-999,-99.99,,,-99.99,,2013-04-12 02:12:00,
2013-04-11 22:22:00,-999.0,-99.9,30.09,North,353,9.0,13.0,-999,-99.99,,,-99.99,,2013-04-12 02:22:00,
2013-04-11 22:32:00,-999.0,-99.9,30.09,NNE,17,8.0,12.0,-999,-99.99,,,-99.99,,2013-04-12 02:32:00,
2013-04-11 22:42:00,-999.0,-99.9,30.09,North,4,9.0,15.0,-999,-99.99,,,-99.99,,2013-04-12 02:42:00,
2013-04-11 22:52:00,22.0,-99.9,30.09,North,356,12.0,14.0,-999,-99.99,,,-99.99,,2013-04-12 02:52:00,
2013-04-11 23:02:00,-999.0,-99.9,30.09,North,-999,8.0,14.0,-999,-99.99,,,-99.99,,2013-04-12 03:02:00,
2013-04-11 23:12:00,-999.0,-99.9,30.09,North,-999,8.0,14.0,-999,-99.99,,,-99.99,,2013-04-12 03:12:00,
2013-04-11 23:22:00,-999.0,-99.9,30.09,North,9,12.0,15.0,-999,-99.99,,,-99.99,,2013-04-12 03:22:00,
2013-04-11 23:33:00,-999.0,-99.9,30.09,North,358,11.0,15.0,-999,-99.99,,,-99.99,,2013-04-12 03:33:00,
2013-04-11 23:43:00,-999.0,-99.9,30.09,North,6,12.0,15.0,-999,-99.99,,,-99.99,,2013-04-12 03:43:00,
2013-04-11 23:53:00,-999.0,-99.9,30.09,NNE,14,10.0,15.0,-999,-99.99,,,-99.99,,2013-04-12 03:53:00,